Time;durP1;ratioP1;P1;durP2;ratioP2;P2;SDS_P1;SDS_P2;PMS_P1;PMS_P2;Temp;Humidity;BMP_temperature;BMP_pressure;BME280_temperature;BME280_humidity;BME280_pressure;Samples;Min_cycle;Max_cycle;Signal;HPM_P1;HPM_P2
2023/05/05 00:00:54;;;;;;;0.10;0.10;;;;;;;;;;4943433;28;20043;-78
2023/05/05 00:03:41;;;;;;;0.10;0.10;;;;;;;;;;4967556;28;20046;-77
2023/05/05 00:06:30;;;;;;;0.00;0.00;;;;;;;;;;4958764;28;20031;-78
2023/05/05 00:09:16;;;;;;;0.10;0.10;;;;;;;;;;4969780;28;20038;-77
2023/05/05 00:12:01;;;;;;;0.10;0.10;;;;;;;;;;4967380;28;20370;-78
2023/05/05 00:14:47;;;;;;;0.10;0.10;;;;;;;;;;4968881;28;20372;-77
2023/05/05 00:17:33;;;;;;;0.10;0.10;;;;;;;;;;4968964;28;20034;-78
2023/05/05 00:20:18;;;;;;;0.10;0.10;;;;;;;;;;4968979;28;20354;-78
2023/05/05 00:23:04;;;;;;;0.10;0.10;;;;;;;;;;4966082;28;20062;-78
2023/05/05 00:25:50;;;;;;;0.10;0.10;;;;;;;;;;4964803;28;20508;-77
2023/05/05 00:28:36;;;;;;;0.10;0.10;;;;;;;;;;4970544;28;20491;-78
2023/05/05 00:31:22;;;;;;;0.10;0.10;;;;;;;;;;4954586;28;20054;-77
2023/05/05 00:34:08;;;;;;;0.10;0.10;;;;;;;;;;4968546;28;20048;-78
2023/05/05 00:36:53;;;;;;;0.00;0.00;;;;;;;;;;4959340;28;20423;-77
2023/05/05 00:39:39;;;;;;;0.10;0.10;;;;;;;;;;4967970;28;20038;-77
2023/05/05 00:42:25;;;;;;;0.10;0.10;;;;;;;;;;4965791;28;20260;-78
2023/05/05 00:45:11;;;;;;;0.20;0.10;;;;;;;;;;4968226;28;20035;-78
2023/05/05 00:47:58;;;;;;;0.10;0.10;;;;;;;;;;4967246;28;20034;-77
2023/05/05 00:50:44;;;;;;;0.00;0.00;;;;;;;;;;4965809;28;20542;-78
2023/05/05 00:53:29;;;;;;;0.10;0.10;;;;;;;;;;4948837;28;20042;-77
2023/05/05 00:56:15;;;;;;;0.10;0.10;;;;;;;;;;4968348;28;20069;-78
2023/05/05 00:59:02;;;;;;;0.10;0.10;;;;;;;;;;4969123;28;20270;-78
2023/05/05 01:01:49;;;;;;;0.10;0.10;;;;;;;;;;4964019;28;20632;-78
2023/05/05 01:04:35;;;;;;;0.10;0.10;;;;;;;;;;4959948;28;20065;-77
2023/05/05 01:07:21;;;;;;;0.00;0.00;;;;;;;;;;4956724;28;20038;-78
2023/05/05 01:10:22;;;;;;;0.10;0.10;;;;;;;;;;4965283;28;20038;-79
2023/05/05 01:13:16;;;;;;;0.10;0.10;;;;;;;;;;4968719;28;20045;-77
2023/05/05 01:16:19;;;;;;;0.10;0.10;;;;;;;;;;4964436;28;20590;-79
2023/05/05 01:19:05;;;;;;;0.10;0.10;;;;;;;;;;4953723;28;20039;-78
2023/05/05 01:22:02;;;;;;;0.10;0.10;;;;;;;;;;4966217;28;20280;-77
2023/05/05 01:24:57;;;;;;;0.10;0.10;;;;;;;;;;4964949;28;20053;-77
2023/05/05 01:28:01;;;;;;;0.10;0.10;;;;;;;;;;4968137;28;20042;-77
2023/05/05 01:31:05;;;;;;;0.10;0.10;;;;;;;;;;4954593;28;20038;-78
2023/05/05 01:33:54;;;;;;;0.10;0.10;;;;;;;;;;4968691;28;20085;-79
2023/05/05 01:36:43;;;;;;;0.10;0.10;;;;;;;;;;4964127;28;20042;-78
2023/05/05 01:39:30;;;;;;;0.00;0.00;;;;;;;;;;4968953;28;20101;-79
2023/05/05 01:42:17;;;;;;;0.10;0.10;;;;;;;;;;4958844;28;20087;-78
2023/05/05 01:45:05;;;;;;;0.10;0.10;;;;;;;;;;4955590;28;20340;-79
2023/05/05 01:47:52;;;;;;;0.10;0.10;;;;;;;;;;4950166;28;20042;-78
2023/05/05 01:50:42;;;;;;;0.00;0.00;;;;;;;;;;4965271;28;20376;-79
2023/05/05 01:53:28;;;;;;;0.10;0.10;;;;;;;;;;4967304;28;20271;-79
2023/05/05 01:56:14;;;;;;;0.10;0.10;;;;;;;;;;4958503;28;20055;-78
2023/05/05 01:59:01;;;;;;;0.03;0.03;;;;;;;;;;4935173;28;20353;-78
2023/05/05 02:01:47;;;;;;;0.10;0.10;;;;;;;;;;4935191;28;20577;-80
2023/05/05 02:04:34;;;;;;;0.10;0.10;;;;;;;;;;4944533;28;20066;-78
2023/05/05 02:07:21;;;;;;;0.10;0.10;;;;;;;;;;4960260;28;20499;-79
2023/05/05 02:10:09;;;;;;;0.10;0.10;;;;;;;;;;4947900;28;20126;-79
2023/05/05 02:12:55;;;;;;;0.05;0.05;;;;;;;;;;4946640;28;20105;-78
2023/05/05 02:15:42;;;;;;;0.10;0.10;;;;;;;;;;4936904;28;20050;-79
2023/05/05 02:18:32;;;;;;;0.10;0.10;;;;;;;;;;4937757;28;20034;-78
2023/05/05 02:21:18;;;;;;;0.00;0.00;;;;;;;;;;4931945;28;20031;-78
2023/05/05 02:24:04;;;;;;;0.10;0.10;;;;;;;;;;4936105;28;20447;-79
2023/05/05 02:26:51;;;;;;;0.10;0.10;;;;;;;;;;4935395;28;20461;-78
2023/05/05 02:29:39;;;;;;;0.10;0.10;;;;;;;;;;4946342;28;20498;-79
2023/05/05 02:32:36;;;;;;;0.10;0.10;;;;;;;;;;4936558;28;20070;-78
2023/05/05 02:35:25;;;;;;;0.00;0.00;;;;;;;;;;4947044;28;20034;-78
2023/05/05 02:38:12;;;;;;;0.10;0.10;;;;;;;;;;4958975;28;20051;-79
2023/05/05 02:41:00;;;;;;;0.10;0.10;;;;;;;;;;4938626;28;20558;-78
2023/05/05 02:43:48;;;;;;;0.10;0.10;;;;;;;;;;4934261;28;20034;-79
2023/05/05 02:46:35;;;;;;;0.03;0.03;;;;;;;;;;4943984;28;20054;-80
2023/05/05 02:49:21;;;;;;;0.10;0.10;;;;;;;;;;4926196;28;20548;-80
2023/05/05 02:52:07;;;;;;;0.10;0.10;;;;;;;;;;4949287;28;20043;-79
2023/05/05 02:54:56;;;;;;;0.08;0.08;;;;;;;;;;4940516;28;20050;-78
2023/05/05 02:57:44;;;;;;;0.10;0.10;;;;;;;;;;4962132;28;20486;-77
2023/05/05 03:00:51;;;;;;;0.10;0.10;;;;;;;;;;4960656;28;20486;-78
2023/05/05 03:03:45;;;;;;;0.05;0.05;;;;;;;;;;4960416;28;20427;-77
2023/05/05 03:06:38;;;;;;;0.10;0.10;;;;;;;;;;4953750;28;20478;-78
2023/05/05 03:09:38;;;;;;;0.00;0.00;;;;;;;;;;4949792;28;20419;-79
2023/05/05 03:12:27;;;;;;;0.10;0.10;;;;;;;;;;4968333;28;20043;-78
2023/05/05 03:15:40;;;;;;;0.10;0.10;;;;;;;;;;4957473;28;20081;-78
2023/05/05 03:18:27;;;;;;;0.00;0.00;;;;;;;;;;4946785;28;20034;-77
2023/05/05 03:21:17;;;;;;;0.10;0.10;;;;;;;;;;4962863;28;20038;-79
2023/05/05 03:24:14;;;;;;;0.10;0.10;;;;;;;;;;4960856;28;20034;-79
2023/05/05 03:27:01;;;;;;;0.10;0.10;;;;;;;;;;4960765;28;20350;-79
2023/05/05 03:29:52;;;;;;;0.10;0.10;;;;;;;;;;4965115;28;20034;-78
2023/05/05 03:32:38;;;;;;;0.10;0.10;;;;;;;;;;4959852;28;20038;-77
2023/05/05 03:35:24;;;;;;;0.10;0.10;;;;;;;;;;4968898;28;20061;-77
2023/05/05 03:38:10;;;;;;;0.10;0.10;;;;;;;;;;4969443;28;20043;-77
2023/05/05 03:40:56;;;;;;;0.10;0.10;;;;;;;;;;4956274;28;20065;-77
2023/05/05 03:43:45;;;;;;;0.10;0.10;;;;;;;;;;4955132;28;20090;-77
2023/05/05 03:46:31;;;;;;;0.10;0.10;;;;;;;;;;4966458;28;20161;-77
2023/05/05 03:49:16;;;;;;;0.10;0.10;;;;;;;;;;4967685;28;20094;-77
2023/05/05 03:52:05;;;;;;;0.10;0.10;;;;;;;;;;4956364;28;20030;-77
2023/05/05 03:54:52;;;;;;;0.10;0.10;;;;;;;;;;4951552;28;20157;-77
2023/05/05 03:57:38;;;;;;;0.10;0.10;;;;;;;;;;4968210;28;20030;-77
2023/05/05 04:00:24;;;;;;;0.10;0.10;;;;;;;;;;4958157;28;20030;-77
2023/05/05 04:03:10;;;;;;;0.10;0.10;;;;;;;;;;4961391;28;20142;-77
2023/05/05 04:05:55;;;;;;;0.10;0.10;;;;;;;;;;4953821;28;20331;-78
2023/05/05 04:08:41;;;;;;;0.10;0.10;;;;;;;;;;4954878;28;20039;-77
2023/05/05 04:11:27;;;;;;;0.15;0.15;;;;;;;;;;4960790;28;20502;-77
2023/05/05 04:14:17;;;;;;;0.10;0.10;;;;;;;;;;4963140;28;20082;-77
2023/05/05 04:17:03;;;;;;;0.10;0.10;;;;;;;;;;4969278;28;20034;-77
2023/05/05 04:19:49;;;;;;;0.10;0.10;;;;;;;;;;4969048;28;20569;-77
2023/05/05 04:22:34;;;;;;;0.10;0.10;;;;;;;;;;4968627;28;20076;-77
2023/05/05 04:25:20;;;;;;;0.10;0.10;;;;;;;;;;4961951;28;20065;-77
2023/05/05 04:28:08;;;;;;;0.10;0.10;;;;;;;;;;4966091;28;20538;-77
2023/05/05 04:30:53;;;;;;;0.00;0.00;;;;;;;;;;4958510;28;20125;-77
2023/05/05 04:33:39;;;;;;;0.20;0.10;;;;;;;;;;4957798;28;20026;-77
2023/05/05 04:36:26;;;;;;;0.10;0.10;;;;;;;;;;4958971;28;20090;-77
2023/05/05 04:39:13;;;;;;;0.10;0.10;;;;;;;;;;4966462;28;20046;-77
2023/05/05 04:41:58;;;;;;;0.10;0.10;;;;;;;;;;4953515;28;20184;-77
2023/05/05 04:44:44;;;;;;;0.10;0.10;;;;;;;;;;4966571;28;20464;-77
2023/05/05 04:47:30;;;;;;;0.10;0.10;;;;;;;;;;4968003;28;20048;-77
2023/05/05 04:50:16;;;;;;;0.10;0.10;;;;;;;;;;4946461;28;20034;-77
2023/05/05 04:53:01;;;;;;;0.10;0.10;;;;;;;;;;4959168;28;20325;-77
2023/05/05 04:55:47;;;;;;;0.10;0.10;;;;;;;;;;4953465;28;20581;-77
2023/05/05 04:58:33;;;;;;;0.10;0.10;;;;;;;;;;4968790;28;20507;-77
2023/05/05 05:01:19;;;;;;;0.10;0.10;;;;;;;;;;4969950;28;20039;-77
2023/05/05 05:04:04;;;;;;;0.10;0.10;;;;;;;;;;4969176;28;20439;-77
2023/05/05 05:06:50;;;;;;;0.10;0.10;;;;;;;;;;4966663;28;21158;-77
2023/05/05 05:09:36;;;;;;;0.10;0.10;;;;;;;;;;4955315;28;20039;-77
2023/05/05 05:12:22;;;;;;;0.10;0.10;;;;;;;;;;4955433;28;20027;-76
2023/05/05 05:15:09;;;;;;;0.17;0.10;;;;;;;;;;4961266;28;20047;-77
2023/05/05 05:17:55;;;;;;;0.10;0.10;;;;;;;;;;4954138;28;20035;-77
2023/05/05 05:20:41;;;;;;;0.10;0.10;;;;;;;;;;4951052;28;20462;-77
2023/05/05 05:23:27;;;;;;;0.10;0.10;;;;;;;;;;4957270;28;20045;-77
2023/05/05 05:26:13;;;;;;;0.10;0.10;;;;;;;;;;4969238;28;20043;-78
2023/05/05 05:28:59;;;;;;;0.10;0.10;;;;;;;;;;4957037;28;20077;-78
2023/05/05 05:31:45;;;;;;;0.10;0.10;;;;;;;;;;4964560;28;20042;-78
2023/05/05 05:34:31;;;;;;;0.10;0.10;;;;;;;;;;4951138;28;20031;-77
2023/05/05 05:37:18;;;;;;;0.10;0.10;;;;;;;;;;4956583;28;20046;-78
2023/05/05 05:40:04;;;;;;;0.10;0.10;;;;;;;;;;4960209;28;20468;-77
2023/05/05 05:42:52;;;;;;;0.03;0.03;;;;;;;;;;4953632;28;20117;-77
2023/05/05 05:45:37;;;;;;;0.10;0.10;;;;;;;;;;4957913;28;20608;-78
2023/05/05 05:48:27;;;;;;;0.20;0.10;;;;;;;;;;4959915;28;20518;-78
2023/05/05 05:51:13;;;;;;;0.10;0.10;;;;;;;;;;4967482;28;20414;-77
2023/05/05 05:53:59;;;;;;;0.10;0.10;;;;;;;;;;4957308;28;20034;-77
2023/05/05 05:56:45;;;;;;;0.10;0.10;;;;;;;;;;4952680;28;20346;-78
2023/05/05 05:59:31;;;;;;;0.10;0.10;;;;;;;;;;4966753;28;20046;-77
2023/05/05 06:02:17;;;;;;;0.10;0.10;;;;;;;;;;4956879;28;20034;-78
2023/05/05 06:05:04;;;;;;;0.10;0.10;;;;;;;;;;4956089;28;20038;-78
2023/05/05 06:07:50;;;;;;;0.10;0.10;;;;;;;;;;4957025;28;20776;-77
2023/05/05 06:10:38;;;;;;;0.10;0.10;;;;;;;;;;4954694;28;20042;-77
2023/05/05 06:13:28;;;;;;;0.10;0.10;;;;;;;;;;4945764;28;20403;-77
2023/05/05 06:16:14;;;;;;;0.10;0.10;;;;;;;;;;4955774;28;20053;-78
2023/05/05 06:19:03;;;;;;;0.10;0.10;;;;;;;;;;4948516;28;20443;-78
2023/05/05 06:21:52;;;;;;;0.10;0.10;;;;;;;;;;4964387;28;20312;-78
2023/05/05 06:24:38;;;;;;;0.00;0.00;;;;;;;;;;4965731;28;20455;-78
2023/05/05 06:27:24;;;;;;;0.20;0.20;;;;;;;;;;4966154;28;20500;-78
2023/05/05 06:30:10;;;;;;;0.10;0.10;;;;;;;;;;4965417;28;20121;-78
2023/05/05 06:32:56;;;;;;;0.10;0.10;;;;;;;;;;4969058;28;20487;-78
2023/05/05 06:35:41;;;;;;;0.10;0.10;;;;;;;;;;4968037;28;20042;-77
2023/05/05 06:38:28;;;;;;;0.20;0.20;;;;;;;;;;4967971;28;20043;-77
2023/05/05 06:41:14;;;;;;;0.10;0.10;;;;;;;;;;4967142;28;20055;-77
2023/05/05 06:43:59;;;;;;;0.10;0.10;;;;;;;;;;4969169;28;20565;-78
2023/05/05 06:46:45;;;;;;;0.10;0.10;;;;;;;;;;4964797;28;20031;-77
2023/05/05 06:49:31;;;;;;;0.10;0.10;;;;;;;;;;4967962;28;20041;-77
2023/05/05 06:52:16;;;;;;;0.10;0.10;;;;;;;;;;4967208;28;20039;-77
2023/05/05 06:55:03;;;;;;;0.10;0.10;;;;;;;;;;4967223;28;20116;-77
2023/05/05 06:57:49;;;;;;;0.10;0.10;;;;;;;;;;4964649;28;20027;-77
2023/05/05 07:00:34;;;;;;;0.10;0.10;;;;;;;;;;4966085;28;20340;-78
2023/05/05 07:03:20;;;;;;;0.10;0.10;;;;;;;;;;4966284;28;20038;-77
2023/05/05 07:06:06;;;;;;;0.10;0.10;;;;;;;;;;4966558;28;20034;-77
2023/05/05 07:08:51;;;;;;;0.10;0.10;;;;;;;;;;4965423;28;20034;-77
2023/05/05 07:11:37;;;;;;;0.10;0.10;;;;;;;;;;4964343;28;20153;-77
2023/05/05 07:14:23;;;;;;;0.10;0.10;;;;;;;;;;4969589;28;20089;-78
2023/05/05 07:17:09;;;;;;;0.10;0.10;;;;;;;;;;4965447;28;20497;-77
2023/05/05 07:19:55;;;;;;;0.10;0.10;;;;;;;;;;4968188;28;20430;-78
2023/05/05 07:22:41;;;;;;;0.10;0.10;;;;;;;;;;4966981;28;20037;-78
2023/05/05 07:25:26;;;;;;;0.10;0.10;;;;;;;;;;4968684;28;20491;-78
2023/05/05 07:28:12;;;;;;;0.10;0.10;;;;;;;;;;4969067;28;20039;-79
2023/05/05 07:30:58;;;;;;;0.10;0.10;;;;;;;;;;4965744;28;20637;-78
2023/05/05 07:33:44;;;;;;;0.10;0.10;;;;;;;;;;4967711;28;20030;-78
2023/05/05 07:36:31;;;;;;;0.10;0.10;;;;;;;;;;4965293;28;20053;-80
2023/05/05 07:39:18;;;;;;;0.10;0.10;;;;;;;;;;4967379;28;20299;-80
2023/05/05 07:42:03;;;;;;;0.10;0.10;;;;;;;;;;4967983;28;20030;-81
2023/05/05 07:44:49;;;;;;;0.10;0.10;;;;;;;;;;4969414;28;20037;-81
2023/05/05 07:47:35;;;;;;;0.10;0.10;;;;;;;;;;4969163;28;20038;-81
2023/05/05 07:50:21;;;;;;;0.10;0.10;;;;;;;;;;4968976;28;20038;-80
2023/05/05 07:53:07;;;;;;;0.10;0.10;;;;;;;;;;4950537;23;20146;-86
2023/05/05 07:55:53;;;;;;;0.10;0.10;;;;;;;;;;4930073;28;20035;-85
2023/05/05 07:58:38;;;;;;;0.10;0.10;;;;;;;;;;4946835;28;20030;-85
2023/05/05 08:01:24;;;;;;;0.10;0.10;;;;;;;;;;4979482;23;20055;-78
2023/05/05 08:04:10;;;;;;;0.20;0.20;;;;;;;;;;4943524;28;20086;-78
2023/05/05 08:06:56;;;;;;;0.25;0.10;;;;;;;;;;4931243;28;20035;-78
2023/05/05 08:09:41;;;;;;;0.10;0.10;;;;;;;;;;4927395;28;20035;-78
2023/05/05 08:12:29;;;;;;;0.10;0.10;;;;;;;;;;4942544;28;20039;-78
2023/05/05 08:15:15;;;;;;;0.10;0.10;;;;;;;;;;4929204;28;20051;-78
2023/05/05 08:18:01;;;;;;;0.20;0.20;;;;;;;;;;4933181;28;20409;-78
2023/05/05 08:20:47;;;;;;;0.10;0.10;;;;;;;;;;4943654;28;20071;-78
2023/05/05 08:23:33;;;;;;;0.10;0.10;;;;;;;;;;4932561;28;20027;-78
2023/05/05 08:26:25;;;;;;;0.10;0.10;;;;;;;;;;4931152;28;20043;-78
2023/05/05 08:29:10;;;;;;;0.10;0.10;;;;;;;;;;4942449;28;20686;-78
2023/05/05 08:31:56;;;;;;;0.10;0.10;;;;;;;;;;4940504;28;20114;-78
2023/05/05 08:34:42;;;;;;;0.10;0.10;;;;;;;;;;4931006;29;20032;-78
2023/05/05 08:37:28;;;;;;;0.10;0.10;;;;;;;;;;4928289;29;20405;-78
2023/05/05 08:40:16;;;;;;;0.10;0.10;;;;;;;;;;4932619;29;20519;-78
2023/05/05 08:43:02;;;;;;;0.10;0.10;;;;;;;;;;4923952;28;20599;-78
2023/05/05 08:45:50;;;;;;;0.10;0.10;;;;;;;;;;4935669;28;20404;-78
2023/05/05 08:48:36;;;;;;;0.10;0.10;;;;;;;;;;4931596;28;20027;-78
2023/05/05 08:51:24;;;;;;;0.13;0.13;;;;;;;;;;4930499;29;20035;-78
2023/05/05 08:54:16;;;;;;;0.20;0.20;;;;;;;;;;4931961;28;20122;-78
2023/05/05 08:57:03;;;;;;;0.10;0.10;;;;;;;;;;4931337;28;20039;-78
2023/05/05 08:59:49;;;;;;;0.10;0.10;;;;;;;;;;4931742;28;20484;-78
2023/05/05 09:02:37;;;;;;;0.10;0.10;;;;;;;;;;4949405;28;20086;-75
2023/05/05 09:05:23;;;;;;;0.10;0.10;;;;;;;;;;4949814;28;20046;-75
2023/05/05 09:08:10;;;;;;;0.10;0.10;;;;;;;;;;4922470;28;20352;-75
2023/05/05 09:10:56;;;;;;;0.10;0.10;;;;;;;;;;4946482;28;20036;-75
2023/05/05 09:13:42;;;;;;;0.10;0.10;;;;;;;;;;4946250;28;20226;-75
2023/05/05 09:19:10;;;;;;;0.10;0.10;;;;;;;;;;5601082;23;20073;-76
2023/05/05 09:21:58;;;;;;;0.10;0.10;;;;;;;;;;4976858;28;20422;-76
2023/05/05 09:24:53;;;;;;;0.10;0.10;;;;;;;;;;4975232;28;20034;-76
2023/05/05 09:27:40;;;;;;;0.15;0.10;;;;;;;;;;4973055;28;20043;-76
2023/05/05 09:30:26;;;;;;;0.10;0.10;;;;;;;;;;4976365;28;20320;-76
2023/05/05 09:33:12;;;;;;;0.10;0.10;;;;;;;;;;4975923;28;20038;-76
2023/05/05 09:35:58;;;;;;;0.10;0.10;;;;;;;;;;4960723;28;20046;-75
2023/05/05 09:39:02;;;;;;;0.10;0.10;;;;;;;;;;4977435;28;20069;-75
2023/05/05 09:41:48;;;;;;;0.10;0.10;;;;;;;;;;4961671;28;20058;-75
2023/05/05 09:44:34;;;;;;;0.10;0.10;;;;;;;;;;4960133;28;20510;-75
2023/05/05 09:47:21;;;;;;;0.10;0.10;;;;;;;;;;4975624;28;20335;-75
2023/05/05 09:50:09;;;;;;;0.10;0.10;;;;;;;;;;4975576;28;20101;-75
2023/05/05 09:52:59;;;;;;;0.10;0.10;;;;;;;;;;4975433;28;20038;-75
2023/05/05 09:55:59;;;;;;;0.10;0.10;;;;;;;;;;4972583;28;20053;-75
2023/05/05 09:58:45;;;;;;;0.10;0.10;;;;;;;;;;4956109;28;20038;-76
2023/05/05 10:01:31;;;;;;;0.10;0.10;;;;;;;;;;4959731;28;20858;-76
2023/05/05 10:04:23;;;;;;;0.10;0.10;;;;;;;;;;4975548;28;20129;-75
2023/05/05 10:07:21;;;;;;;0.10;0.10;;;;;;;;;;4974934;28;20113;-76
2023/05/05 10:10:08;;;;;;;0.10;0.10;;;;;;;;;;4974069;28;20041;-75
2023/05/05 10:12:54;;;;;;;0.20;0.20;;;;;;;;;;4950750;28;20045;-76
2023/05/05 10:15:41;;;;;;;0.20;0.20;;;;;;;;;;4974737;28;20311;-75
2023/05/05 10:18:27;;;;;;;0.10;0.10;;;;;;;;;;4973612;28;20054;-75
2023/05/05 10:21:15;;;;;;;0.20;0.20;;;;;;;;;;4975528;28;20185;-76
2023/05/05 10:24:30;;;;;;;0.20;0.20;;;;;;;;;;4974953;28;20487;-76
2023/05/05 10:27:18;;;;;;;0.10;0.10;;;;;;;;;;4960297;28;20430;-76
2023/05/05 10:30:06;;;;;;;0.10;0.10;;;;;;;;;;4976754;28;20109;-75
2023/05/05 10:33:10;;;;;;;0.13;0.13;;;;;;;;;;4972798;28;20723;-76
2023/05/05 10:35:58;;;;;;;0.10;0.10;;;;;;;;;;4966224;28;21192;-75
2023/05/05 10:38:51;;;;;;;0.10;0.10;;;;;;;;;;4968002;28;20117;-75
2023/05/05 10:41:37;;;;;;;0.10;0.10;;;;;;;;;;4972736;28;20049;-75
2023/05/05 10:44:23;;;;;;;0.10;0.10;;;;;;;;;;4975835;28;20038;-75
2023/05/05 10:47:09;;;;;;;0.10;0.10;;;;;;;;;;4973670;28;20038;-75
2023/05/05 10:50:21;;;;;;;0.10;0.10;;;;;;;;;;4975613;28;20046;-75
2023/05/05 10:53:26;;;;;;;0.10;0.10;;;;;;;;;;4975219;28;20039;-75
2023/05/05 10:56:12;;;;;;;0.10;0.10;;;;;;;;;;4974294;28;20081;-75
2023/05/05 10:59:00;;;;;;;0.10;0.10;;;;;;;;;;4973261;28;20220;-76
2023/05/05 11:01:46;;;;;;;0.10;0.10;;;;;;;;;;4975014;28;20081;-75
2023/05/05 11:04:51;;;;;;;0.10;0.10;;;;;;;;;;4974213;28;20062;-75
2023/05/05 11:07:37;;;;;;;0.10;0.10;;;;;;;;;;4974513;28;20035;-75
2023/05/05 11:10:23;;;;;;;0.10;0.10;;;;;;;;;;4977300;28;20041;-75
2023/05/05 11:13:11;;;;;;;0.10;0.10;;;;;;;;;;4975792;28;20038;-75
2023/05/05 11:15:58;;;;;;;0.10;0.10;;;;;;;;;;4977026;28;20030;-75
2023/05/05 11:18:44;;;;;;;0.10;0.10;;;;;;;;;;4981803;28;20050;-75
2023/05/05 11:21:50;;;;;;;0.10;0.10;;;;;;;;;;4980623;28;20041;-75
2023/05/05 11:24:36;;;;;;;0.17;0.17;;;;;;;;;;4960165;28;20030;-76
2023/05/05 11:27:42;;;;;;;0.10;0.10;;;;;;;;;;4979770;28;20041;-76
2023/05/05 11:30:28;;;;;;;0.10;0.10;;;;;;;;;;4979938;28;20125;-76
2023/05/05 11:33:23;;;;;;;0.10;0.10;;;;;;;;;;4980488;28;20431;-77
2023/05/05 11:36:12;;;;;;;0.10;0.10;;;;;;;;;;4977400;28;20628;-76
2023/05/05 11:39:01;;;;;;;0.10;0.10;;;;;;;;;;4980082;28;20026;-76
2023/05/05 11:42:02;;;;;;;0.10;0.10;;;;;;;;;;4979568;28;20027;-76
2023/05/05 11:44:48;;;;;;;0.20;0.20;;;;;;;;;;4978164;28;20394;-76
2023/05/05 11:47:35;;;;;;;0.10;0.10;;;;;;;;;;4958587;28;20414;-76
2023/05/05 11:50:21;;;;;;;0.15;0.15;;;;;;;;;;4979837;28;20493;-76
2023/05/05 11:53:07;;;;;;;0.10;0.10;;;;;;;;;;4976547;28;20039;-76
2023/05/05 11:56:08;;;;;;;0.10;0.10;;;;;;;;;;4976220;28;20121;-77
2023/05/05 11:59:09;;;;;;;0.10;0.10;;;;;;;;;;4978543;28;20030;-77
2023/05/05 12:01:57;;;;;;;0.10;0.10;;;;;;;;;;4976266;28;20046;-77
2023/05/05 12:04:46;;;;;;;0.10;0.10;;;;;;;;;;4978322;28;20034;-80
2023/05/05 12:07:32;;;;;;;0.10;0.10;;;;;;;;;;4978635;28;20578;-78
2023/05/05 12:10:23;;;;;;;0.00;0.00;;;;;;;;;;4978409;28;20041;-78
2023/05/05 12:13:18;;;;;;;0.10;0.10;;;;;;;;;;4979187;28;20038;-78
2023/05/05 12:16:11;;;;;;;0.10;0.10;;;;;;;;;;4963019;28;20074;-78
2023/05/05 12:19:07;;;;;;;0.10;0.10;;;;;;;;;;4976521;28;20968;-78
2023/05/05 12:21:53;;;;;;;0.00;0.00;;;;;;;;;;4978559;28;20065;-78
2023/05/05 12:24:40;;;;;;;0.10;0.10;;;;;;;;;;4963731;28;20069;-78
2023/05/05 12:27:27;;;;;;;0.10;0.10;;;;;;;;;;4979240;28;20558;-79
2023/05/05 12:30:14;;;;;;;0.10;0.10;;;;;;;;;;4965837;28;20041;-79
2023/05/05 12:33:04;;;;;;;0.00;0.00;;;;;;;;;;4977561;28;20030;-79
2023/05/05 12:35:50;;;;;;;0.10;0.10;;;;;;;;;;4977536;28;20034;-78
2023/05/05 12:38:36;;;;;;;0.10;0.10;;;;;;;;;;4978987;28;20035;-79
2023/05/05 12:41:22;;;;;;;0.10;0.10;;;;;;;;;;4977331;28;20130;-79
2023/05/05 12:44:12;;;;;;;0.10;0.10;;;;;;;;;;4980161;28;20121;-79
2023/05/05 12:46:58;;;;;;;0.10;0.10;;;;;;;;;;4979371;28;20069;-79
2023/05/05 12:49:48;;;;;;;0.10;0.10;;;;;;;;;;4965565;28;20034;-79
2023/05/05 12:52:41;;;;;;;0.00;0.00;;;;;;;;;;4953859;28;20081;-79
2023/05/05 12:55:36;;;;;;;0.00;0.00;;;;;;;;;;4976919;28;20100;-78
2023/05/05 12:58:22;;;;;;;0.00;0.00;;;;;;;;;;4977686;28;20034;-79
2023/05/05 13:01:11;;;;;;;0.00;0.00;;;;;;;;;;4978040;28;20173;-78
2023/05/05 13:04:04;;;;;;;0.00;0.00;;;;;;;;;;4978486;28;20353;-79
2023/05/05 13:07:06;;;;;;;0.00;0.00;;;;;;;;;;4961579;28;20168;-78
2023/05/05 13:10:05;;;;;;;0.00;0.00;;;;;;;;;;4978027;28;20034;-79
2023/05/05 13:12:53;;;;;;;0.00;0.00;;;;;;;;;;4976902;28;20148;-78
2023/05/05 13:15:39;;;;;;;0.00;0.00;;;;;;;;;;4961568;28;20114;-79
2023/05/05 13:18:25;;;;;;;0.00;0.00;;;;;;;;;;4977193;28;20030;-78
2023/05/05 13:21:17;;;;;;;0.00;0.00;;;;;;;;;;4976684;28;20038;-78
2023/05/05 13:24:03;;;;;;;0.00;0.00;;;;;;;;;;4961225;28;20521;-78
2023/05/05 13:26:52;;;;;;;0.10;0.10;;;;;;;;;;4976211;28;20119;-78
2023/05/05 13:29:38;;;;;;;0.00;0.00;;;;;;;;;;4977926;28;20413;-78
2023/05/05 13:32:24;;;;;;;0.00;0.00;;;;;;;;;;4976509;28;20043;-77
2023/05/05 13:35:10;;;;;;;0.00;0.00;;;;;;;;;;4977620;28;20046;-78
2023/05/05 13:37:58;;;;;;;0.00;0.00;;;;;;;;;;4979001;28;20104;-78
2023/05/05 13:40:44;;;;;;;0.10;0.10;;;;;;;;;;4974816;28;20057;-78
2023/05/05 13:43:30;;;;;;;0.10;0.10;;;;;;;;;;4976940;28;20044;-77
2023/05/05 13:46:21;;;;;;;0.10;0.10;;;;;;;;;;4957491;28;20046;-78
2023/05/05 13:49:06;;;;;;;0.10;0.10;;;;;;;;;;4975498;28;20039;-78
2023/05/05 13:51:53;;;;;;;0.10;0.10;;;;;;;;;;4975809;28;20045;-78
2023/05/05 13:54:42;;;;;;;0.10;0.10;;;;;;;;;;4978144;28;20120;-78
2023/05/05 13:57:30;;;;;;;0.10;0.10;;;;;;;;;;4962931;28;20096;-78
2023/05/05 14:00:19;;;;;;;0.10;0.10;;;;;;;;;;4961942;28;20038;-78
2023/05/05 14:03:05;;;;;;;0.10;0.10;;;;;;;;;;4976371;28;20065;-78
2023/05/05 14:05:50;;;;;;;0.10;0.10;;;;;;;;;;4975144;28;20117;-78
2023/05/05 14:08:36;;;;;;;0.10;0.10;;;;;;;;;;4977462;28;20543;-78
2023/05/05 14:11:22;;;;;;;0.10;0.10;;;;;;;;;;4976488;28;20480;-78
2023/05/05 14:14:13;;;;;;;0.00;0.00;;;;;;;;;;4977668;28;20034;-77
2023/05/05 14:17:01;;;;;;;0.10;0.10;;;;;;;;;;4976263;28;20046;-77
2023/05/05 14:19:47;;;;;;;0.03;0.03;;;;;;;;;;4976489;28;20054;-78
2023/05/05 14:22:32;;;;;;;0.10;0.10;;;;;;;;;;4976106;28;20044;-77
2023/05/05 14:25:21;;;;;;;0.10;0.10;;;;;;;;;;4976966;28;20049;-77
2023/05/05 14:28:07;;;;;;;0.10;0.10;;;;;;;;;;4976549;28;20046;-77
2023/05/05 14:30:53;;;;;;;0.10;0.10;;;;;;;;;;4975996;28;20038;-78
2023/05/05 14:33:39;;;;;;;0.10;0.10;;;;;;;;;;4975809;28;20121;-77
2023/05/05 14:36:25;;;;;;;0.10;0.10;;;;;;;;;;4977022;28;20041;-78
2023/05/05 14:39:11;;;;;;;0.10;0.10;;;;;;;;;;4976447;28;20070;-77
2023/05/05 14:41:57;;;;;;;0.10;0.10;;;;;;;;;;4976563;28;20078;-77
2023/05/05 14:44:45;;;;;;;0.10;0.10;;;;;;;;;;4975380;28;20034;-78
2023/05/05 14:47:32;;;;;;;0.10;0.10;;;;;;;;;;4954031;28;20092;-77
2023/05/05 14:50:17;;;;;;;0.10;0.10;;;;;;;;;;4977309;28;20108;-78
2023/05/05 14:53:03;;;;;;;0.10;0.10;;;;;;;;;;4975686;28;20045;-78
2023/05/05 14:55:49;;;;;;;0.10;0.10;;;;;;;;;;4966377;28;20138;-78
2023/05/05 14:58:35;;;;;;;0.00;0.00;;;;;;;;;;4973204;28;20030;-78
2023/05/05 15:01:21;;;;;;;0.10;0.10;;;;;;;;;;4975637;28;20129;-78
2023/05/05 15:04:06;;;;;;;0.10;0.10;;;;;;;;;;4975429;28;20525;-78
2023/05/05 15:06:52;;;;;;;0.10;0.10;;;;;;;;;;4972588;28;20128;-78
2023/05/05 15:09:38;;;;;;;0.00;0.00;;;;;;;;;;4975147;28;20041;-78
2023/05/05 15:12:26;;;;;;;0.10;0.10;;;;;;;;;;4973633;28;20030;-78
2023/05/05 15:15:12;;;;;;;0.00;0.00;;;;;;;;;;4960668;28;20300;-78
2023/05/05 15:17:58;;;;;;;0.08;0.08;;;;;;;;;;4976022;28;20083;-78
2023/05/05 15:20:44;;;;;;;0.10;0.10;;;;;;;;;;4972907;28;20078;-78
2023/05/05 15:23:29;;;;;;;0.10;0.10;;;;;;;;;;4975998;28;20134;-78
2023/05/05 15:26:15;;;;;;;0.10;0.10;;;;;;;;;;4976337;28;20046;-77
2023/05/05 15:29:01;;;;;;;0.10;0.10;;;;;;;;;;4976747;28;20049;-78
2023/05/05 15:31:46;;;;;;;0.10;0.10;;;;;;;;;;4974247;28;20109;-78
2023/05/05 15:34:32;;;;;;;0.10;0.10;;;;;;;;;;4975068;28;20113;-77
2023/05/05 15:37:18;;;;;;;0.10;0.10;;;;;;;;;;4975093;28;20519;-78
2023/05/05 15:40:04;;;;;;;0.10;0.10;;;;;;;;;;4975687;28;20270;-78
2023/05/05 15:42:50;;;;;;;0.10;0.10;;;;;;;;;;4974369;28;20045;-78
2023/05/05 15:45:35;;;;;;;0.10;0.10;;;;;;;;;;4972795;28;20491;-78
2023/05/05 15:48:22;;;;;;;0.10;0.10;;;;;;;;;;4973506;28;20073;-78
2023/05/05 15:51:10;;;;;;;0.00;0.00;;;;;;;;;;4960028;28;20046;-77
2023/05/05 15:53:55;;;;;;;0.10;0.10;;;;;;;;;;4959391;28;20045;-78
2023/05/05 15:56:41;;;;;;;0.10;0.10;;;;;;;;;;4974591;28;20525;-78
2023/05/05 15:59:27;;;;;;;0.00;0.00;;;;;;;;;;4977012;28;20034;-77
2023/05/05 16:02:15;;;;;;;0.00;0.00;;;;;;;;;;4974306;28;20551;-78
2023/05/05 16:05:00;;;;;;;0.00;0.00;;;;;;;;;;4978645;28;20487;-77
2023/05/05 16:07:46;;;;;;;0.08;0.08;;;;;;;;;;4978641;28;20044;-77
2023/05/05 16:10:32;;;;;;;0.10;0.10;;;;;;;;;;4976622;28;20534;-77
2023/05/05 16:13:18;;;;;;;0.10;0.10;;;;;;;;;;4978172;28;20096;-78
2023/05/05 16:16:04;;;;;;;0.10;0.10;;;;;;;;;;4963687;28;20046;-77
2023/05/05 16:18:50;;;;;;;0.10;0.10;;;;;;;;;;4978307;28;20391;-77
2023/05/05 16:21:36;;;;;;;0.10;0.10;;;;;;;;;;4976364;28;20148;-77
2023/05/05 16:24:22;;;;;;;0.03;0.03;;;;;;;;;;4979061;28;20045;-78
2023/05/05 16:27:08;;;;;;;0.10;0.10;;;;;;;;;;4977539;28;20049;-77
2023/05/05 16:29:57;;;;;;;0.00;0.00;;;;;;;;;;4977902;28;20572;-78
2023/05/05 16:32:42;;;;;;;0.00;0.00;;;;;;;;;;4978652;28;20352;-77
2023/05/05 16:35:29;;;;;;;0.00;0.00;;;;;;;;;;4977664;28;20042;-77
2023/05/05 16:38:17;;;;;;;0.10;0.10;;;;;;;;;;4977950;28;20037;-77
2023/05/05 16:41:23;;;;;;;0.10;0.10;;;;;;;;;;4964806;28;20027;-77
2023/05/05 16:44:11;;;;;;;0.10;0.10;;;;;;;;;;4979232;28;20030;-78
2023/05/05 16:46:57;;;;;;;0.10;0.10;;;;;;;;;;4976550;28;20049;-77
2023/05/05 16:49:43;;;;;;;0.00;0.00;;;;;;;;;;4963107;28;20113;-77